LiveATC.Net - Listen to live air traffic control over the Internet!


ICAO: RKSI  IATA: ICN   Airport: Incheon International Airport
City: Seoul
Country: Korea, Republic of   Continent: Asia
RKSI METAR Weather: RKSI 251530Z 30001KT 4200 1700SW -DZ BR OVC003 13/11 Q1012 NOSIG
RKSI Flight Activity (FlightAware)

RKRR Incheon Control
Feed Status: UP   Listeners: 3
Listen in your browser - HTML5 player (in browser, HTML5)
Click here to listen with your own player (launches your MP3 player)
Archive Access: RKRR Incheon Control
FacilityFrequency
Incheon Control North Sector (Primary)128.700
Incheon Control North Sector (Secondary)132.800
Incheon Control Northwest Sector (Primary)126.175
Incheon Control Northwest Sector (Secondary)123.725

NOTICE

Unauthorized use prohibited. See LiveATC.net Terms of Service


Airport/ARTCC Code
Frequency Search
(e.g., 124.400, 128.75)
Site-wide search
 


Browse Feeds
Top 50 Feeds
Coverage Map
Bad Weather Areas

LiveATC FAQ
Offer LiveATC feed
Contact LiveATC.net
Press Inquiries

LiveATC on iPhone
LiveATC on Android

Windows Phone
Windows 8/10

LiveATC Mobile
(Mobile browser)

ATC Audio Archives
Interesting Recordings

LiveATC Forums


Home Page
About LiveATC.net
Make a Donation
Terms of Use
Privacy Policy

Canadian Air Freqs

AIRMETs/SIGMETs

FAA Airport Status
Nat'l Airspace Status
Arrival Demand Charts


Server Software By:
Icecast.org
Liquidsoap